Details From MKJP - Norman Manley Intl
To MKJS - Sangster Intl
Flight Number -
Tags generated
Created
Modified
Stats Distance 73 nm / 135 km
Max Altitude 7,700 ft / 2,347 m
Waypoints 3
Social Downloads 0
Likes 0
Share VATSIM

Download

Looking for another format? Having issues loading an existing format? Contact us
Advertisement - Login to hide

Notes

Basic altitude profile: - Ascent Rate: 2500ft/min - Ascent Speed: 250kts - Cruise Altitude: 35000ft - Cruise Speed: 420kts - Descent Rate: 1500ft/min - Descent Speed: 250kts Options: - Use NATs: yes - Use PACOTS: yes - Use low airways: yes - Use high airways: yes

Route

MKJP KEMBO MKJS

ID Type Via Altitude Latitude Longitude Leg Dist Tot Dist Heading (true) Name
O MKJP APT - 0 ft / 0 m 17.93567˚ -76.78756˚ - 0 nm - Norman Manley Intl
KEMBO FIX - 7,700 ft / 2,347 m 18.21889˚ -77.35472˚ 36 nm 36 nm 298° / 298° -
O MKJS APT - 0 ft / 0 m 18.50355˚ -77.91370˚ 36 nm 72 nm 298° / 298° Sangster Intl

Altitude Profile

Advertisement - Login to hide

MKJP

Details ICAO MKJP (KIN)
Name Norman Manley Intl
Region Jamaica
Timezone Unknown (UTC+0.0)
Stats Elevation 10 ft / 3 m (AMSL)
Location 17.935665° -76.787560°
Runways 1
Magnetic Variation 7.541° W

METAR

MKJP 130500Z 35012KT 9999 FEW022 SCT038 BKN080 26/23 Q1012

Decode

TAF

TAF MKJP 122315Z 1300/1324 36008KT 9999 FEW018 FEW020CB BKN034 PROB30 TEMPO 1300/1306 SHRA BKN018 BKN030 BECMG 1315/1317 17010KT PROB40 TEMPO 1318/1321 SHRA SCT018 FEW020CB BK032

Decode

Departure Runways

ID Width Length Bearing (true) Bearing (mag) Surface Threshold Offset Overrun Length
12 150 ft / 46 m 8,912 ft / 2,717 m 112.09° 119.63° Asphalt 0 ft / 0 m 0 ft / 0 m
30 150 ft / 46 m 8,912 ft / 2,717 m 292.10° 299.64° Asphalt 0 ft / 0 m 0 ft / 0 m

MKJS

Details ICAO MKJS (MBJ)
Name Sangster Intl
Region Jamaica
Timezone America/Jamaica (UTC-5.0)
Stats Elevation 6 ft / 2 m (AMSL)
Location 18.503549° -77.913698°
Runways 1
Magnetic Variation 6.955° W

METAR

MKJS 130500Z 01016KT 9999 BKN016 BKN032 25/21 Q1014

Decode

TAF

TAF MKJS 122315Z 1300/1324 02015KT 8000 RA BKN015 OVC030 TEMPO 1300/1306 5000 TSRA BKN015 SCT018CB OVC030 BECMG 1314/1316 06016KT SCT018 FEW022CB BKN032 PROB40 TEMPO 1318/1321 SHRA SCT018 BKN030

Decode

Destination Runways

ID Width Length Bearing (true) Bearing (mag) Surface Threshold Offset Overrun Length
07 161 ft / 49 m 8,495 ft / 2,589 m 65.37° 72.33° Asphalt 220 ft / 67 m 312 ft / 95 m
25 161 ft / 49 m 8,495 ft / 2,589 m 245.37° 252.33° Asphalt 577 ft / 176 m 200 ft / 61 m

Approach Navaids

Runway Type Ident Frequency Range Bearing (true) Bearing (mag) Slope Elevation
07 Localiser ISIA 109.50 MHz 18 nm / 33 km 65.41° 72.36° - 4 ft / 1 m (AMSL)
07 Glidescope ISIA 109.50 MHz 10 nm / 19 km 65.37° 72.33° 3.00° 4 ft / 1 m (AMSL)

Popular Alternatives